Time;durP1;ratioP1;P1;durP2;ratioP2;P2;SDS_P1;SDS_P2;PMS_P1;PMS_P2;Temp;Humidity;BMP_temperature;BMP_pressure;BME280_temperature;BME280_humidity;BME280_pressure;Samples;Min_cycle;Max_cycle;Signal;HPM_P1;HPM_P2
2021/04/14 00:04:07;;;;;;;14.70;10.60;;;;;;;11.07;76.42;100549.14;1701050;82;21165;-38
2021/04/14 00:10:53;;;;;;;17.40;9.28;;;;;;;11.12;75.16;100555.92;1678632;84;21111;-40
2021/04/14 00:13:25;;;;;;;15.23;10.25;;;;;;;11.15;74.31;100563.73;1710035;82;21319;-39
2021/04/14 00:15:55;;;;;;;12.10;9.53;;;;;;;11.16;74.04;100561.47;1695807;83;21224;-40
2021/04/14 00:18:25;;;;;;;17.00;10.00;;;;;;;11.18;73.56;100565.36;1681546;83;22007;-40
2021/04/14 00:20:55;;;;;;;11.53;9.30;;;;;;;11.17;73.29;100561.84;1706006;82;21165;-39
2021/04/14 00:23:23;;;;;;;9.48;8.20;;;;;;;11.16;73.15;100574.81;1704674;82;21192;-38
2021/04/14 00:38:46;;;;;;;10.03;7.45;;;;;;;11.13;72.21;100554.95;1711637;82;21097;-40
2021/04/14 00:41:14;;;;;;;11.10;8.30;;;;;;;11.13;72.15;100549.62;1696609;82;21255;-39
2021/04/14 00:43:44;;;;;;;10.30;7.97;;;;;;;11.13;71.95;100549.62;1702010;82;21648;-40
2021/04/14 00:46:13;;;;;;;11.78;7.80;;;;;;;11.12;71.76;100544.39;1710817;82;21148;-41
2021/04/14 00:48:42;;;;;;;10.80;7.55;;;;;;;11.12;71.57;100545.24;1707669;83;21204;-39
2021/04/14 00:51:10;;;;;;;9.98;7.03;;;;;;;11.12;71.49;100545.24;1711146;83;21185;-37
2021/04/14 00:53:39;;;;;;;12.25;8.85;;;;;;;11.13;71.25;100547.42;1709703;83;21168;-39
2021/04/14 00:56:08;;;;;;;9.33;8.25;;;;;;;11.13;71.08;100544.28;1704068;82;22479;-38
2021/04/14 00:58:37;;;;;;;12.53;7.53;;;;;;;11.11;70.97;100536.83;1692811;83;21231;-39
2021/04/14 01:01:07;;;;;;;9.80;7.58;;;;;;;11.11;70.79;100538.16;1697070;83;21173;-39
2021/04/14 01:03:36;;;;;;;11.38;7.90;;;;;;;11.12;70.72;100543.05;1710918;82;21184;-41
2021/04/14 01:06:17;;;;;;;10.25;7.45;;;;;;;11.11;70.57;100535.50;1712999;82;21163;-40
2021/04/14 01:08:45;;;;;;;8.47;7.57;;;;;;;11.10;70.55;100539.13;1694626;83;21207;-39
2021/04/14 01:11:15;;;;;;;11.18;9.10;;;;;;;11.11;70.63;100542.17;1702445;83;21855;-39
2021/04/14 01:13:45;;;;;;;10.05;7.03;;;;;;;11.10;70.52;100542.28;1696442;83;21575;-40
2021/04/14 01:16:13;;;;;;;9.03;6.97;;;;;;;11.11;70.42;100543.98;1692983;83;21181;-40
2021/04/14 01:18:43;;;;;;;8.68;7.22;;;;;;;11.09;70.26;100536.09;1700890;83;21186;-40
2021/04/14 01:21:22;;;;;;;9.90;7.40;;;;;;;11.10;70.19;100535.61;1697944;82;21172;-40
2021/04/14 01:23:52;;;;;;;10.00;6.97;;;;;;;11.09;70.19;100533.88;1703112;82;21375;-39
2021/04/14 01:26:19;;;;;;;8.45;7.20;;;;;;;11.09;70.03;100531.20;1702825;82;21181;-40
2021/04/14 01:28:47;;;;;;;12.60;7.78;;;;;;;11.09;69.95;100529.87;1706416;82;21193;-41
2021/04/14 01:31:20;;;;;;;14.73;7.95;;;;;;;11.08;69.97;100529.50;1694515;83;21124;-38
2021/04/14 01:33:48;;;;;;;12.95;8.35;;;;;;;11.08;69.91;100532.17;1702597;83;21153;-39
2021/04/14 01:36:16;;;;;;;7.97;6.87;;;;;;;11.05;69.80;100527.88;1695350;84;21609;-39
2021/04/14 01:38:45;;;;;;;11.10;7.83;;;;;;;11.07;69.47;100532.65;1721201;81;21229;-41
2021/04/14 01:41:13;;;;;;;10.98;7.17;;;;;;;11.07;69.32;100530.46;1713966;82;21255;-39
2021/04/14 01:43:42;;;;;;;11.45;7.40;;;;;;;11.07;69.20;100530.46;1696280;83;21177;-39
2021/04/14 01:46:10;;;;;;;13.20;7.80;;;;;;;11.05;69.28;100527.39;1726699;81;21621;-39
2021/04/14 01:48:37;;;;;;;7.80;5.60;;;;;;;11.07;69.21;100535.80;1698585;83;21156;-40
2021/04/14 01:51:06;;;;;;;9.53;8.13;;;;;;;11.07;69.13;100522.45;1705847;82;21188;-38
2021/04/14 01:53:35;;;;;;;8.58;6.70;;;;;;;11.07;69.21;100521.13;1702770;82;22127;-40
2021/04/14 01:56:04;;;;;;;9.33;6.78;;;;;;;11.05;69.39;100519.87;1702278;82;21180;-39
2021/04/14 01:58:33;;;;;;;8.88;7.12;;;;;;;11.04;69.52;100523.02;1678660;84;21203;-39
2021/04/14 02:01:05;;;;;;;9.70;7.12;;;;;;;11.03;69.51;100522.61;1689088;84;21608;-39
2021/04/14 02:03:37;;;;;;;8.40;6.70;;;;;;;11.04;69.63;100518.16;1697357;83;21155;-39
2021/04/14 02:06:07;;;;;;;11.12;6.75;;;;;;;11.04;69.57;100515.49;1700288;83;21193;-39
2021/04/14 02:08:34;;;;;;;9.83;6.37;;;;;;;11.04;69.53;100510.16;1700140;83;21162;-38
2021/04/14 02:11:05;;;;;;;11.30;7.30;;;;;;;11.04;69.38;100510.16;1701097;83;21172;-38
2021/04/14 02:13:36;;;;;;;10.35;7.35;;;;;;;11.03;69.38;100509.27;1699520;83;21211;-39
2021/04/14 02:16:06;;;;;;;8.28;7.47;;;;;;;11.03;69.28;100513.75;1690739;83;21163;-39
2021/04/14 02:18:34;;;;;;;9.93;6.70;;;;;;;11.00;69.10;100513.47;1709325;82;21869;-40
2021/04/14 02:21:03;;;;;;;9.13;6.25;;;;;;;11.00;69.05;100509.95;1707901;82;21172;-40
2021/04/14 02:23:38;;;;;;;11.55;6.53;;;;;;;10.99;69.01;100513.58;1706484;82;21192;-37
2021/04/14 02:26:09;;;;;;;10.60;6.92;;;;;;;10.98;68.87;100511.84;1705582;83;21151;-37
2021/04/14 02:28:37;;;;;;;10.43;6.85;;;;;;;10.96;68.55;100507.95;1701497;82;21176;-38
2021/04/14 02:31:05;;;;;;;10.98;6.55;;;;;;;10.96;68.26;100518.63;1692479;83;21188;-37
2021/04/14 02:33:35;;;;;;;8.20;5.75;;;;;;;10.95;68.02;100517.36;1686159;84;21572;-37
2021/04/14 02:36:04;;;;;;;10.93;6.53;;;;;;;10.92;67.65;100511.73;1691131;83;21186;-39
2021/04/14 02:38:31;;;;;;;9.13;6.50;;;;;;;10.90;67.28;100513.62;1678423;84;21190;-38
2021/04/14 02:41:04;;;;;;;13.30;6.60;;;;;;;10.89;66.91;100513.73;1690856;83;21207;-39
2021/04/14 02:43:32;;;;;;;8.35;6.00;;;;;;;10.87;66.53;100506.30;1719044;82;21479;-39
2021/04/14 02:46:00;;;;;;;6.35;5.65;;;;;;;10.85;66.24;100504.19;1718837;82;21581;-35
2021/04/14 02:48:28;;;;;;;11.83;6.90;;;;;;;10.82;65.94;100502.08;1728432;81;21132;-40
2021/04/14 02:50:55;;;;;;;14.50;7.10;;;;;;;10.81;65.61;100492.86;1717908;82;21200;-37
2021/04/14 02:53:23;;;;;;;8.28;7.08;;;;;;;10.79;65.31;100490.75;1719361;82;21192;-40
2021/04/14 02:55:51;;;;;;;9.40;6.53;;;;;;;10.77;65.22;100493.97;1718611;82;21660;-38
2021/04/14 02:58:20;;;;;;;8.35;6.75;;;;;;;10.74;65.24;100492.83;1702267;83;21586;-39
2021/04/14 03:00:49;;;;;;;10.98;6.30;;;;;;;10.73;65.25;100497.28;1691861;83;21159;-38
2021/04/14 03:03:17;;;;;;;8.88;6.47;;;;;;;10.72;65.37;100500.91;1689746;84;21200;-37
2021/04/14 03:05:45;;;;;;;8.60;6.35;;;;;;;10.74;65.29;100504.83;1692092;83;21165;-37
2021/04/14 03:08:12;;;;;;;8.15;6.10;;;;;;;10.72;65.33;100506.23;1723885;82;21620;-40
2021/04/14 03:10:41;;;;;;;9.03;6.30;;;;;;;10.73;65.24;100513.77;1688928;84;21203;-38
2021/04/14 03:13:08;;;;;;;11.03;7.97;;;;;;;10.71;65.41;100515.66;1686622;83;21210;-38
2021/04/14 03:15:40;;;;;;;8.73;6.90;;;;;;;10.70;65.46;100513.95;1692560;83;21200;-38
2021/04/14 03:18:09;;;;;;;10.00;6.35;;;;;;;10.64;65.58;100515.17;1697660;83;21169;-38
2021/04/14 03:20:37;;;;;;;8.95;6.62;;;;;;;10.59;65.65;100511.91;1715992;82;21128;-38
2021/04/14 03:23:05;;;;;;;9.53;6.37;;;;;;;10.55;65.96;100509.88;1723429;82;21417;-36
2021/04/14 03:25:33;;;;;;;9.40;6.42;;;;;;;10.55;66.22;100507.22;1721359;82;21621;-46
2021/04/14 03:28:02;;;;;;;7.25;5.83;;;;;;;10.55;66.56;100511.22;1725668;82;21172;-36
2021/04/14 03:30:29;;;;;;;9.15;6.50;;;;;;;10.53;66.81;100502.47;1717907;82;21155;-36
2021/04/14 03:32:57;;;;;;;8.33;6.75;;;;;;;10.50;66.81;100512.44;1692399;84;21148;-38
2021/04/14 03:35:26;;;;;;;9.90;7.10;;;;;;;10.47;66.91;100508.14;1708028;83;21176;-39
2021/04/14 03:37:54;;;;;;;11.48;7.45;;;;;;;10.43;66.91;100510.58;1716925;81;21557;-41
2021/04/14 03:40:21;;;;;;;8.38;6.03;;;;;;;10.41;67.19;100511.17;1721310;82;21128;-40
2021/04/14 03:42:51;;;;;;;7.60;5.85;;;;;;;10.41;67.53;100511.17;1691537;82;22191;-38
2021/04/14 03:45:27;;;;;;;7.03;6.20;;;;;;;10.39;67.78;100511.73;1677051;83;21165;-39
2021/04/14 03:47:52;;;;;;;11.18;6.62;;;;;;;10.39;68.09;100514.39;1690338;84;21141;-41
2021/04/14 03:50:21;;;;;;;8.08;5.97;;;;;;;10.40;68.56;100512.09;1694886;84;21169;-49
2021/04/14 03:52:49;;;;;;;6.95;6.15;;;;;;;10.39;69.13;100509.06;1688381;83;21145;-41
2021/04/14 03:55:19;;;;;;;11.18;6.72;;;;;;;10.38;69.26;100509.55;1673161;84;21187;-41
2021/04/14 03:57:47;;;;;;;8.63;6.05;;;;;;;10.38;69.37;100507.32;1696600;83;21212;-47
2021/04/14 04:00:17;;;;;;;7.47;5.97;;;;;;;10.38;69.70;100511.32;1686992;84;21179;-41
2021/04/14 04:02:44;;;;;;;7.83;5.33;;;;;;;10.38;69.90;100513.54;1690340;83;21132;-41
2021/04/14 04:05:12;;;;;;;8.43;5.60;;;;;;;10.38;70.03;100511.32;1687160;84;21218;-41
2021/04/14 04:07:40;;;;;;;7.78;5.80;;;;;;;10.38;70.03;100515.32;1695823;83;21402;-44
2021/04/14 04:10:09;;;;;;;11.95;6.35;;;;;;;10.38;70.08;100519.32;1686961;84;21164;-39
2021/04/14 04:12:36;;;;;;;7.25;6.55;;;;;;;10.35;70.06;100515.02;1718255;81;21184;-38
2021/04/14 04:15:11;;;;;;;8.30;5.70;;;;;;;10.34;70.23;100515.13;1706743;82;21169;-39
2021/04/14 04:17:35;;;;;;;7.12;5.62;;;;;;;10.34;70.16;100520.46;1700418;82;21180;-40
2021/04/14 04:20:07;;;;;;;7.62;5.83;;;;;;;10.34;70.23;100521.80;1710754;82;21128;-41
2021/04/14 04:22:34;;;;;;;9.38;6.17;;;;;;;10.34;69.94;100518.64;1703676;82;22212;-42
2021/04/14 04:25:03;;;;;;;11.70;6.80;;;;;;;10.33;69.76;100516.94;1701437;82;21196;-39
2021/04/14 04:27:31;;;;;;;7.83;6.30;;;;;;;10.35;69.80;100524.83;1700063;82;21165;-43
2021/04/14 04:29:58;;;;;;;8.65;6.85;;;;;;;10.36;69.55;100523.91;1694600;82;21188;-52
2021/04/14 04:32:26;;;;;;;9.38;6.33;;;;;;;10.37;69.05;100522.47;1701332;82;21654;-40
2021/04/14 04:34:56;;;;;;;10.68;6.58;;;;;;;10.42;68.70;100522.69;1673673;83;21176;-40
2021/04/14 04:37:23;;;;;;;10.48;6.83;;;;;;;10.45;68.48;100523.84;1718692;82;21172;-45
2021/04/14 04:39:51;;;;;;;10.53;6.62;;;;;;;10.46;68.08;100518.87;1715299;83;21205;-40
2021/04/14 04:42:18;;;;;;;9.18;6.40;;;;;;;10.49;67.82;100518.73;1690792;83;21185;-40
2021/04/14 04:44:46;;;;;;;8.50;6.17;;;;;;;10.50;67.71;100519.10;1688450;83;21141;-39
2021/04/14 04:47:13;;;;;;;6.97;5.80;;;;;;;10.52;67.41;100519.88;1690526;83;21209;-40
2021/04/14 04:49:41;;;;;;;9.33;6.75;;;;;;;10.52;67.16;100525.20;1679097;83;21217;-43
2021/04/14 04:52:10;;;;;;;9.40;6.65;;;;;;;10.53;66.95;100525.58;1678270;84;21309;-43
2021/04/14 04:54:39;;;;;;;8.58;7.05;;;;;;;10.54;66.67;100523.32;1691628;83;21142;-45
2021/04/14 04:57:07;;;;;;;10.88;7.10;;;;;;;10.54;66.26;100524.17;1692739;83;21173;-41
2021/04/14 04:59:35;;;;;;;9.73;6.65;;;;;;;10.55;65.71;100521.03;1705419;83;21170;-42
2021/04/14 05:02:03;;;;;;;10.78;7.33;;;;;;;10.57;65.06;100523.99;1701223;83;21192;-42
2021/04/14 05:04:31;;;;;;;12.40;7.37;;;;;;;10.61;64.58;100526.88;1692887;84;21168;-39
2021/04/14 05:06:59;;;;;;;8.73;7.15;;;;;;;10.63;64.12;100528.09;1705540;83;21276;-43
2021/04/14 05:09:26;;;;;;;8.10;6.95;;;;;;;10.65;63.76;100530.69;1704244;82;21621;-43
2021/04/14 05:11:54;;;;;;;10.60;6.90;;;;;;;10.66;63.89;100529.73;1719311;82;21666;-41
2021/04/14 05:14:23;;;;;;;10.45;6.40;;;;;;;10.67;63.46;100532.80;1686111;83;21141;-43
2021/04/14 05:16:53;;;;;;;9.28;6.65;;;;;;;10.69;63.01;100532.24;1685903;83;22221;-43
2021/04/14 05:19:22;;;;;;;9.95;7.42;;;;;;;10.71;62.93;100531.66;1694974;83;21128;-41
2021/04/14 05:21:52;;;;;;;9.95;6.45;;;;;;;10.73;62.91;100528.43;1701301;82;22761;-43
2021/04/14 05:24:20;;;;;;;7.22;6.00;;;;;;;10.74;62.86;100524.36;1697298;84;21201;-40
2021/04/14 05:26:48;;;;;;;7.85;6.70;;;;;;;10.76;62.71;100528.25;1684588;83;21629;-40
2021/04/14 05:29:16;;;;;;;10.32;6.28;;;;;;;10.78;62.64;100529.02;1703873;82;21216;-42
2021/04/14 05:31:43;;;;;;;15.58;13.22;;;;;;;10.80;62.56;100529.80;1708152;82;21204;-49
2021/04/14 05:34:11;;;;;;;11.00;7.60;;;;;;;10.83;62.24;100525.61;1699523;83;21168;-43
2021/04/14 05:36:39;;;;;;;9.20;6.72;;;;;;;10.83;62.43;100529.16;1696998;83;21827;-56
2021/04/14 05:39:07;;;;;;;9.50;7.45;;;;;;;10.85;62.15;100529.05;1684632;83;21168;-39
2021/04/14 05:41:35;;;;;;;11.20;7.92;;;;;;;10.86;62.20;100533.45;1703859;82;21169;-38
2021/04/14 05:44:03;;;;;;;10.55;8.28;;;;;;;10.89;62.12;100523.93;1699466;82;21359;-39
2021/04/14 05:46:30;;;;;;;12.43;9.60;;;;;;;10.91;62.09;100531.38;1719970;81;21167;-41
2021/04/14 05:48:58;;;;;;;14.07;9.73;;;;;;;10.95;62.06;100529.38;1698449;82;21209;-42
2021/04/14 05:51:30;;;;;;;11.00;8.88;;;;;;;10.98;61.92;100522.52;1716193;81;21195;-40
2021/04/14 05:53:58;;;;;;;12.15;8.18;;;;;;;11.02;62.20;100526.73;1694442;83;21183;-37
2021/04/14 05:56:27;;;;;;;10.25;7.83;;;;;;;11.03;61.84;100522.61;1706372;82;21220;-38
2021/04/14 05:58:55;;;;;;;11.40;8.00;;;;;;;11.07;61.53;100525.13;1705703;82;21684;-41
2021/04/14 06:01:25;;;;;;;11.20;7.78;;;;;;;11.10;61.28;100528.45;1697867;83;21620;-49
2021/04/14 06:03:53;;;;;;;;;;;;;;;11.12;60.81;100523.89;1716595;82;21617;-39
2021/04/14 06:06:20;;;;;;;11.35;6.40;;;;;;;11.14;60.45;100523.33;1722519;81;20210;-40
2021/04/14 06:08:48;;;;;;;9.20;7.40;;;;;;;11.18;60.51;100522.66;1695512;83;21187;-39
2021/04/14 06:11:16;;;;;;;8.98;7.42;;;;;;;11.20;61.02;100522.09;1722788;81;21188;-38
2021/04/14 06:16:22;;;;;;;8.05;6.97;;;;;;;11.29;60.76;100520.21;1800281;78;22655;-38
2021/04/14 06:18:50;;;;;;;9.15;7.58;;;;;;;11.29;60.70;100523.33;1776509;79;21701;-41
2021/04/14 06:21:19;;;;;;;10.58;7.53;;;;;;;11.33;60.21;100523.54;1738034;81;21271;-40
2021/04/14 06:23:48;;;;;;;9.30;7.58;;;;;;;11.35;60.12;100523.83;1722547;81;21688;-40
2021/04/14 06:26:31;;;;;;;11.33;7.92;;;;;;;11.40;60.06;100520.88;1722382;81;21287;-43
2021/04/14 06:28:54;;;;;;;10.03;7.30;;;;;;;11.43;59.42;100525.55;1741393;81;21137;-41
2021/04/14 06:31:22;;;;;;;10.50;8.08;;;;;;;11.46;59.54;100521.38;1736645;81;21132;-48
2021/04/14 06:33:51;;;;;;;9.93;8.18;;;;;;;11.50;58.95;100521.18;1737657;81;21164;-53
2021/04/14 06:36:19;;;;;;;13.20;8.73;;;;;;;11.53;58.15;100522.32;1739350;81;21175;-42
2021/04/14 06:38:49;;;;;;;13.40;7.87;;;;;;;11.54;57.88;100524.91;1740126;81;21166;-45
2021/04/14 06:44:25;;;;;;;13.48;9.28;;;;;;;11.58;57.65;100534.91;1634698;86;21234;-47
2021/04/14 06:46:53;;;;;;;10.85;7.90;;;;;;;11.59;57.12;100535.28;1685270;83;21141;-53
2021/04/14 06:49:37;;;;;;;10.65;8.73;;;;;;;11.61;57.00;100538.72;1684097;83;21164;-40
2021/04/14 06:52:16;;;;;;;11.40;9.10;;;;;;;11.58;56.64;100527.75;1684578;83;21145;-45
2021/04/14 06:55:01;;;;;;;14.83;8.98;;;;;;;11.63;57.14;100535.48;1805243;77;23227;-56
2021/04/14 06:57:38;;;;;;;13.28;7.90;;;;;;;11.60;57.46;100531.67;1750726;78;22130;-55
2021/04/14 07:00:20;;;;;;;12.15;8.35;;;;;;;11.59;57.13;100537.50;1774341;78;21141;-41
2021/04/14 07:03:09;;;;;;;11.35;8.58;;;;;;;11.60;57.22;100536.53;1774958;78;21102;-42
2021/04/14 07:06:01;;;;;;;9.40;8.15;;;;;;;11.60;57.51;100535.69;1721338;81;21163;-43
2021/04/14 07:08:34;;;;;;;11.30;7.83;;;;;;;11.59;57.31;100540.62;1720571;81;21171;-46
2021/04/14 07:11:03;;;;;;;11.03;8.25;;;;;;;11.57;57.46;100541.22;1717177;81;21563;-45
2021/04/14 07:13:35;;;;;;;9.55;8.55;;;;;;;11.57;57.70;100545.23;1723216;81;21555;-46
2021/04/14 07:16:14;;;;;;;11.38;9.35;;;;;;;11.55;57.74;100539.11;1721591;81;21162;-44
2021/04/14 07:19:06;;;;;;;14.43;9.75;;;;;;;11.55;57.75;100544.45;1664977;84;21149;-43
2021/04/14 07:21:48;;;;;;;12.78;11.18;;;;;;;11.60;57.95;100538.35;1753539;79;28236;-47
2021/04/14 07:24:36;;;;;;;10.85;8.93;;;;;;;11.59;58.22;100534.83;1735737;80;21121;-45
2021/04/14 07:27:35;;;;;;;12.07;9.48;;;;;;;11.66;58.42;100538.81;1734443;80;21549;-44
2021/04/14 07:30:17;;;;;;;10.10;8.30;;;;;;;11.68;57.62;100529.38;1739344;80;21118;-44
2021/04/14 07:33:36;;;;;;;13.20;10.00;;;;;;;11.73;56.72;100529.09;1795624;78;22960;-46
2021/04/14 07:36:21;;;;;;;10.85;8.55;;;;;;;11.68;57.02;100533.38;1728619;81;21185;-43
2021/04/14 07:39:13;;;;;;;11.12;9.18;;;;;;;11.72;57.02;100533.59;1725963;81;21164;-44
2021/04/14 07:42:08;;;;;;;13.30;8.90;;;;;;;11.81;57.44;100538.82;1799944;77;22742;-43
2021/04/14 07:45:29;;;;;;;11.05;9.43;;;;;;;11.80;57.29;100532.63;1751498;78;21146;-46
2021/04/14 07:48:31;;;;;;;11.45;8.63;;;;;;;11.83;56.77;100536.44;1766605;78;21156;-43
2021/04/14 07:51:01;;;;;;;11.40;9.35;;;;;;;11.86;56.71;100542.06;1772585;78;21428;-44
2021/04/14 07:53:36;;;;;;;12.90;9.98;;;;;;;11.87;56.44;100542.01;1720863;81;21173;-44
2021/04/14 07:56:18;;;;;;;12.18;10.15;;;;;;;11.91;56.66;100547.52;1743787;80;21125;-44
2021/04/14 07:59:27;;;;;;;11.12;9.95;;;;;;;11.95;56.70;100539.34;1744697;80;21668;-45
2021/04/14 08:02:28;;;;;;;11.73;9.23;;;;;;;11.98;56.69;100537.80;1603657;87;21756;-40
2021/04/14 08:05:27;;;;;;;13.88;10.65;;;;;;;12.07;57.65;100539.41;1841156;76;27707;-43
2021/04/14 08:07:55;;;;;;;11.65;8.38;;;;;;;12.08;57.58;100537.11;1813139;77;21125;-43
2021/04/14 08:10:26;;;;;;;14.10;10.03;;;;;;;12.12;57.44;100539.98;1811309;77;21138;-43
2021/04/14 08:13:04;;;;;;;14.05;11.00;;;;;;;12.17;57.30;100540.14;1809960;77;21129;-44
2021/04/14 08:15:44;;;;;;;13.00;9.43;;;;;;;12.20;56.67;100534.14;1812040;77;21118;-42
2021/04/14 08:18:29;;;;;;;15.95;10.78;;;;;;;12.23;56.23;100531.74;1812004;77;21122;-46
2021/04/14 08:21:23;;;;;;;15.35;10.63;;;;;;;12.27;55.89;100535.46;1787018;79;21128;-44
2021/04/14 08:24:38;;;;;;;14.15;10.88;;;;;;;12.30;55.71;100527.72;1703312;82;21193;-40
2021/04/14 08:27:27;;;;;;;11.25;9.38;;;;;;;12.38;55.56;100519.20;1759603;79;23477;-46
2021/04/14 08:30:09;;;;;;;11.18;9.48;;;;;;;12.35;55.72;100520.26;1737979;80;21122;-43
2021/04/14 08:32:43;;;;;;;11.55;9.25;;;;;;;12.39;55.56;100514.22;1736679;82;21170;-43
2021/04/14 08:35:28;;;;;;;14.68;10.48;;;;;;;12.41;55.24;100513.64;1734874;80;21161;-42
2021/04/14 08:38:25;;;;;;;12.63;10.45;;;;;;;12.45;55.32;100505.32;1734047;80;21668;-43
2021/04/14 08:40:57;;;;;;;11.33;9.63;;;;;;;12.50;55.73;100503.20;1739049;80;21145;-43
2021/04/14 08:43:39;;;;;;;10.82;8.63;;;;;;;12.56;55.76;100500.11;1736758;82;21588;-43
2021/04/14 08:46:36;;;;;;;12.63;8.43;;;;;;;12.63;54.74;100491.20;1740154;82;21118;-44
2021/04/14 08:49:10;;;;;;;11.45;8.33;;;;;;;12.70;54.80;100485.83;1734359;82;21153;-45
2021/04/14 08:51:43;;;;;;;11.60;8.95;;;;;;;12.80;55.18;100483.84;1732425;80;21149;-46
2021/04/14 08:54:15;;;;;;;10.13;8.33;;;;;;;12.87;55.00;100479.80;1735936;80;21160;-43
2021/04/14 08:56:42;;;;;;;12.63;9.53;;;;;;;12.94;54.87;100472.58;1735256;80;21138;-42
2021/04/14 08:59:12;;;;;;;15.80;10.78;;;;;;;13.03;55.31;100472.45;1733790;80;21146;-45
2021/04/14 09:01:40;;;;;;;13.48;9.73;;;;;;;13.13;55.95;100467.32;1737455;80;21303;-46
2021/04/14 09:04:09;;;;;;;15.45;10.25;;;;;;;13.21;56.18;100464.96;1730639;80;21114;-45
2021/04/14 09:06:43;;;;;;;13.58;9.98;;;;;;;13.29;56.05;100461.29;1737959;80;21188;-46
2021/04/14 09:09:25;;;;;;;15.65;10.72;;;;;;;13.37;55.75;100454.91;1730980;80;21739;-44
2021/04/14 09:11:59;;;;;;;15.70;9.45;;;;;;;13.45;55.72;100450.34;1735458;80;21519;-45
2021/04/14 09:14:30;;;;;;;17.90;11.83;;;;;;;13.50;55.01;100454.89;1731584;80;21655;-47
2021/04/14 09:17:06;;;;;;;15.80;9.80;;;;;;;13.56;55.03;100446.92;1735537;80;21166;-44
2021/04/14 09:19:40;;;;;;;15.30;9.10;;;;;;;13.60;54.80;100449.25;1688953;83;21145;-44
2021/04/14 09:22:24;;;;;;;17.23;9.88;;;;;;;13.66;54.69;100442.62;1708006;82;21745;-46
2021/04/14 09:25:04;;;;;;;16.62;9.43;;;;;;;13.72;53.94;100434.61;1709476;82;21134;-42
2021/04/14 09:27:42;;;;;;;14.23;8.63;;;;;;;13.76;53.98;100433.44;1636161;85;21162;-45
2021/04/14 09:30:32;;;;;;;11.95;8.28;;;;;;;13.82;53.74;100427.13;1638136;86;21176;-48
2021/04/14 09:33:09;;;;;;;13.98;8.65;;;;;;;13.93;53.63;100414.77;1619387;87;21150;-45
2021/04/14 09:35:56;;;;;;;20.48;9.08;;;;;;;14.02;52.38;100413.60;1590229;88;21321;-51
2021/04/14 09:41:14;;;;;;;20.48;9.95;;;;;;;14.27;52.21;100399.22;1760319;79;23425;-44
2021/04/14 09:43:45;;;;;;;18.05;8.88;;;;;;;14.33;51.96;100397.90;1710878;80;21149;-45
2021/04/14 09:46:28;;;;;;;13.38;7.70;;;;;;;14.44;51.63;100393.94;1737812;80;21276;-44
2021/04/14 09:49:15;;;;;;;17.80;7.58;;;;;;;14.54;51.51;100395.93;1748141;80;21264;-46
2021/04/14 09:51:56;;;;;;;16.82;7.05;;;;;;;14.64;51.46;100390.23;1730895;80;21158;-45
2021/04/14 09:54:30;;;;;;;12.50;6.05;;;;;;;14.77;51.17;100395.04;1739219;80;21553;-45
2021/04/14 09:56:59;;;;;;;13.62;6.62;;;;;;;14.89;50.54;100383.81;1740304;80;21128;-46
2021/04/14 09:59:36;;;;;;;12.20;7.12;;;;;;;15.00;49.63;100382.50;1737881;80;21137;-44
2021/04/14 10:02:18;;;;;;;8.68;6.17;;;;;;;15.10;49.96;100379.45;1739029;80;21579;-44
2021/04/14 10:04:50;;;;;;;11.85;5.65;;;;;;;15.22;48.78;100378.11;1742854;82;21166;-42
2021/04/14 10:07:22;;;;;;;8.45;5.17;;;;;;;15.32;48.94;100377.73;1749560;80;21158;-43
2021/04/14 10:09:51;;;;;;;8.20;5.67;;;;;;;15.42;47.96;100375.17;1653510;85;21164;-43
2021/04/14 10:12:23;;;;;;;11.43;6.17;;;;;;;15.52;47.66;100373.45;1672566;84;21141;-43
2021/04/14 10:14:56;;;;;;;8.38;5.80;;;;;;;15.58;47.14;100363.06;1734844;80;21235;-45
2021/04/14 10:17:28;;;;;;;8.55;4.87;;;;;;;15.68;47.11;100365.02;1729502;80;21586;-46
2021/04/14 10:20:18;;;;;;;8.33;5.60;;;;;;;15.76;46.45;100362.58;1709378;82;21186;-44
2021/04/14 10:22:48;;;;;;;8.95;5.20;;;;;;;15.83;45.89;100359.76;1699716;82;21140;-45
2021/04/14 10:25:27;;;;;;;11.65;4.92;;;;;;;15.91;44.88;100355.09;1696430;82;21144;-44
2021/04/14 10:28:07;;;;;;;7.20;4.72;;;;;;;15.96;45.77;100356.41;1694712;82;21614;-46
2021/04/14 10:30:38;;;;;;;12.95;5.65;;;;;;;16.07;46.32;100352.81;1690493;83;21175;-44
2021/04/14 10:33:37;;;;;;;;;;;;;;;16.17;45.10;100354.25;1695812;82;21205;-45
2021/04/14 10:37:17;;;;;;;6.15;3.65;;;;;;;16.27;44.49;100352.49;1545183;90;20189;-45
2021/04/14 10:39:51;;;;;;;6.83;4.08;;;;;;;16.46;44.04;100343.73;1799009;78;22974;-46
2021/04/14 10:42:27;;;;;;;6.78;4.20;;;;;;;16.49;43.89;100346.16;1772708;79;21708;-45
2021/04/14 10:45:40;;;;;;;8.58;4.83;;;;;;;16.55;43.89;100341.58;1777132;80;21150;-48
2021/04/14 10:49:26;;;;;;;6.28;3.50;;;;;;;16.65;43.78;100337.61;1520059;92;21211;-49
2021/04/14 10:52:25;;;;;;;7.33;4.50;;;;;;;16.81;42.07;100333.15;1787186;78;23045;-47
2021/04/14 10:54:56;;;;;;;5.62;3.67;;;;;;;16.82;42.28;100334.34;1779515;79;21197;-47
2021/04/14 10:57:40;;;;;;;6.42;4.42;;;;;;;16.86;41.37;100332.25;1761949;79;21132;-48
2021/04/14 11:00:21;;;;;;;7.05;3.98;;;;;;;16.90;41.37;100338.21;1773449;79;21113;-49
2021/04/14 11:02:50;;;;;;;5.95;4.33;;;;;;;16.91;41.30;100332.70;1782118;79;21580;-48
2021/04/14 11:05:19;;;;;;;5.05;3.75;;;;;;;16.93;41.22;100332.05;1738657;81;21144;-45
2021/04/14 11:07:49;;;;;;;6.65;3.80;;;;;;;16.97;42.06;100332.16;1718722;81;21153;-41
2021/04/14 11:10:25;;;;;;;6.70;4.53;;;;;;;17.00;41.43;100331.87;1707342;82;21126;-41
2021/04/14 11:12:55;;;;;;;7.20;4.00;;;;;;;17.03;41.19;100333.45;1719357;81;21146;-40
2021/04/14 11:15:26;;;;;;;5.95;4.35;;;;;;;17.08;41.56;100335.24;1737019;80;21252;-41
2021/04/14 11:18:00;;;;;;;6.33;4.53;;;;;;;17.13;41.72;100329.45;1732685;81;21173;-44
2021/04/14 11:20:54;;;;;;;5.75;4.50;;;;;;;17.24;41.00;100331.56;1796787;78;23394;-42
2021/04/14 11:23:28;;;;;;;9.43;4.10;;;;;;;17.27;41.15;100329.09;1783193;78;21161;-42
2021/04/14 11:26:13;;;;;;;4.30;3.55;;;;;;;17.34;40.76;100327.56;1752950;79;21164;-43
2021/04/14 11:28:46;;;;;;;7.40;4.62;;;;;;;17.39;40.41;100332.05;1783797;78;21588;-54
2021/04/14 11:31:43;;;;;;;4.15;3.67;;;;;;;17.41;40.13;100317.95;1785267;78;21162;-45
2021/04/14 11:34:19;;;;;;;4.62;4.00;;;;;;;17.43;39.28;100321.33;1785146;78;21141;-43
2021/04/14 11:37:08;;;;;;;6.30;4.50;;;;;;;17.44;39.60;100315.47;1727307;81;21208;-41
2021/04/14 11:40:00;;;;;;;8.73;5.10;;;;;;;17.41;39.90;100313.02;1727656;81;21137;-44
2021/04/14 11:42:51;;;;;;;6.67;4.20;;;;;;;17.41;39.89;100315.25;1728632;81;21601;-44
2021/04/14 11:45:31;;;;;;;6.30;4.58;;;;;;;17.42;40.75;100306.16;1698493;81;21149;-44
2021/04/14 11:48:12;;;;;;;6.17;4.25;;;;;;;17.45;40.59;100307.73;1731400;81;21161;-40
2021/04/14 11:50:44;;;;;;;5.97;3.92;;;;;;;17.51;40.57;100303.12;1729762;81;21904;-43
2021/04/14 11:53:29;;;;;;;8.55;4.58;;;;;;;17.55;40.53;100299.67;1732675;81;21530;-45
2021/04/14 11:56:00;;;;;;;10.43;8.50;;;;;;;17.57;40.56;100300.39;1733034;81;21588;-43
2021/04/14 11:58:38;;;;;;;8.50;5.30;;;;;;;17.55;39.86;100296.97;1725959;81;21637;-45
2021/04/14 12:01:06;;;;;;;9.83;5.15;;;;;;;17.51;40.15;100295.03;1731619;81;21187;-43
2021/04/14 12:03:39;;;;;;;5.65;4.58;;;;;;;17.49;40.08;100295.69;1728744;81;21149;-42
2021/04/14 12:06:07;;;;;;;8.35;4.92;;;;;;;17.47;39.98;100291.77;1727863;81;21189;-40
2021/04/14 12:08:35;;;;;;;5.65;4.83;;;;;;;17.44;39.72;100292.06;1733748;81;21148;-39
2021/04/14 12:11:05;;;;;;;8.55;4.85;;;;;;;17.42;39.78;100294.03;1732306;81;21161;-46
2021/04/14 12:13:34;;;;;;;5.13;4.17;;;;;;;17.38;39.93;100291.75;1705067;82;21165;-42
2021/04/14 12:16:02;;;;;;;5.30;4.55;;;;;;;17.35;39.76;100294.73;1729327;81;21602;-42
2021/04/14 12:18:30;;;;;;;8.10;4.55;;;;;;;17.29;40.12;100290.25;1726315;81;21860;-42
2021/04/14 12:21:00;;;;;;;7.25;4.22;;;;;;;17.26;39.88;100290.52;1720947;82;21147;-41
2021/04/14 12:23:27;;;;;;;6.83;4.03;;;;;;;17.24;39.61;100284.92;1725120;81;21190;-40